Time;durP1;ratioP1;P1;durP2;ratioP2;P2;SDS_P1;SDS_P2;PMS_P1;PMS_P2;Temp;Humidity;BMP_temperature;BMP_pressure;BME280_temperature;BME280_humidity;BME280_pressure;Samples;Min_cycle;Max_cycle;Signal;HPM_P1;HPM_P2
2023/03/06 00:00:51;;;;;;;10.45;3.80;;;2.80;99.90;;;;;;5088715;28;20101;-74
2023/03/06 00:03:17;;;;;;;5.15;2.92;;;2.80;99.90;;;;;;5088099;28;20055;-74
2023/03/06 00:05:43;;;;;;;9.18;3.30;;;2.90;99.90;;;;;;5086912;28;20036;-74
2023/03/06 00:08:09;;;;;;;8.45;3.25;;;2.90;99.90;;;;;;5086281;28;20372;-74
2023/03/06 00:10:35;;;;;;;9.77;3.33;;;2.90;99.90;;;;;;5085270;28;20128;-74
2023/03/06 00:13:03;;;;;;;8.63;3.03;;;2.90;99.90;;;;;;5083629;28;20048;-74
2023/03/06 00:15:29;;;;;;;8.07;3.03;;;2.90;99.90;;;;;;5076252;28;20063;-74
2023/03/06 00:17:56;;;;;;;11.02;3.58;;;2.90;99.90;;;;;;5088554;28;20475;-74
2023/03/06 00:20:23;;;;;;;11.07;3.40;;;2.90;99.90;;;;;;5085601;28;20043;-74
2023/03/06 00:22:49;;;;;;;8.98;3.45;;;2.80;99.90;;;;;;5085273;28;20036;-73
2023/03/06 00:25:18;;;;;;;8.57;3.95;;;2.90;99.90;;;;;;5090230;28;20483;-74
2023/03/06 00:27:44;;;;;;;7.93;3.45;;;2.80;99.90;;;;;;5089245;28;20487;-74
2023/03/06 00:30:13;;;;;;;9.52;3.92;;;2.80;99.90;;;;;;5086186;28;20097;-74
2023/03/06 00:32:38;;;;;;;8.00;3.80;;;2.80;99.90;;;;;;5085601;28;20036;-74
2023/03/06 00:35:04;;;;;;;11.85;3.72;;;2.80;99.90;;;;;;5083645;28;20036;-74
2023/03/06 00:37:30;;;;;;;9.35;3.95;;;2.80;99.90;;;;;;5086182;28;20048;-74
2023/03/06 00:39:56;;;;;;;10.02;4.00;;;2.80;99.90;;;;;;5079275;28;20037;-74
2023/03/06 00:42:22;;;;;;;7.43;3.83;;;2.80;99.90;;;;;;5082183;28;20445;-74
2023/03/06 00:44:47;;;;;;;9.80;3.92;;;2.80;99.90;;;;;;5080257;28;20052;-74
2023/03/06 00:47:16;;;;;;;11.27;4.53;;;2.80;99.90;;;;;;5090085;28;20445;-73
2023/03/06 00:49:45;;;;;;;9.38;4.28;;;2.70;99.90;;;;;;5080781;28;20075;-73
2023/03/06 00:52:11;;;;;;;13.13;4.68;;;2.70;99.90;;;;;;5088142;28;20050;-74
2023/03/06 00:54:37;;;;;;;9.43;4.50;;;2.70;99.90;;;;;;5090474;28;20455;-74
2023/03/06 00:59:46;;;;;;;10.30;4.15;;;2.70;99.90;;;;;;5130009;22;20053;-72
2023/03/06 01:02:12;;;;;;;11.45;4.10;;;2.70;99.90;;;;;;5015012;28;20049;-72
2023/03/06 01:04:38;;;;;;;8.40;3.40;;;2.80;99.90;;;;;;5027474;28;20053;-72
2023/03/06 01:07:04;;;;;;;8.10;3.80;;;2.70;99.90;;;;;;5030995;28;20152;-72
2023/03/06 01:09:29;;;;;;;8.43;3.88;;;2.70;99.90;;;;;;5027548;28;20056;-71
2023/03/06 01:11:55;;;;;;;10.63;4.03;;;2.70;99.90;;;;;;5029181;28;20041;-71
2023/03/06 01:14:21;;;;;;;11.10;4.35;;;2.70;99.90;;;;;;5032468;28;20052;-72
2023/03/06 01:16:47;;;;;;;11.02;4.22;;;2.70;99.90;;;;;;5029403;28;20037;-72
2023/03/06 01:19:13;;;;;;;9.38;4.38;;;2.80;99.90;;;;;;5024502;28;20128;-71
2023/03/06 01:21:39;;;;;;;7.07;3.95;;;2.70;99.90;;;;;;5015484;28;20049;-71
2023/03/06 01:24:05;;;;;;;11.68;4.78;;;2.70;99.90;;;;;;5029028;28;20044;-71
2023/03/06 01:26:30;;;;;;;13.95;5.50;;;2.70;99.90;;;;;;5028027;28;20080;-71
2023/03/06 01:28:56;;;;;;;10.73;4.90;;;2.80;99.90;;;;;;5028877;28;20484;-72
2023/03/06 01:31:23;;;;;;;10.10;5.57;;;2.70;99.90;;;;;;5027581;28;20038;-71
2023/03/06 01:33:49;;;;;;;10.65;5.20;;;2.70;99.90;;;;;;5026616;28;20098;-72
2023/03/06 01:36:15;;;;;;;10.13;5.15;;;2.70;99.90;;;;;;5024319;28;20041;-71
2023/03/06 01:38:41;;;;;;;9.73;5.10;;;2.70;99.90;;;;;;5026958;28;20041;-72
2023/03/06 01:41:07;;;;;;;10.15;5.22;;;2.70;99.90;;;;;;5028882;28;20052;-71
2023/03/06 01:43:41;;;;;;;9.75;5.70;;;2.80;99.90;;;;;;5030069;28;20045;-71
2023/03/06 01:46:31;;;;;;;12.02;6.10;;;2.80;99.90;;;;;;5026251;28;20046;-71
2023/03/06 01:48:56;;;;;;;9.60;5.90;;;2.80;99.90;;;;;;5026369;28;20492;-71
2023/03/06 01:51:27;;;;;;;11.90;6.20;;;2.80;99.90;;;;;;5024307;28;20041;-71
2023/03/06 01:53:54;;;;;;;10.60;6.18;;;2.80;99.90;;;;;;5018996;28;20519;-72
2023/03/06 01:56:20;;;;;;;11.77;6.23;;;2.80;99.90;;;;;;5028123;28;20037;-71
2023/03/06 01:58:48;;;;;;;13.73;5.85;;;2.80;99.90;;;;;;5025923;28;20077;-72
2023/03/06 02:01:16;;;;;;;10.80;6.63;;;2.80;99.90;;;;;;5027644;28;20157;-71
2023/03/06 02:03:41;;;;;;;;;;;2.80;99.90;;;;;;5026471;28;20100;-71
2023/03/06 02:06:08;;;;;;;8.27;5.38;;;2.80;99.90;;;;;;5022635;28;20406;-71
2023/03/06 02:08:34;;;;;;;10.07;5.78;;;2.80;99.90;;;;;;5027251;28;20089;-71
2023/03/06 02:11:13;;;;;;;8.98;5.50;;;2.90;99.90;;;;;;5022761;28;20044;-71
2023/03/06 02:13:40;;;;;;;10.40;5.70;;;2.90;99.90;;;;;;5023386;28;20068;-72
2023/03/06 02:16:08;;;;;;;10.20;5.35;;;2.90;99.90;;;;;;5027888;28;20045;-71
2023/03/06 02:18:34;;;;;;;11.05;6.25;;;2.90;99.90;;;;;;5027605;28;20080;-71
2023/03/06 02:21:09;;;;;;;12.90;5.90;;;2.90;99.90;;;;;;5027431;28;20405;-71
2023/03/06 02:23:59;;;;;;;12.82;6.38;;;2.90;99.90;;;;;;5022937;28;20041;-71
2023/03/06 02:26:27;;;;;;;10.48;6.20;;;2.90;99.90;;;;;;5028284;28;20033;-71
2023/03/06 02:28:52;;;;;;;9.20;6.00;;;2.90;99.90;;;;;;5026299;28;20496;-71
2023/03/06 02:31:22;;;;;;;10.23;6.07;;;2.90;99.90;;;;;;5020372;28;20052;-71
2023/03/06 02:34:25;;;;;;;9.00;6.18;;;2.90;99.90;;;;;;5028964;28;20594;-71
2023/03/06 02:36:57;;;;;;;11.15;6.22;;;2.90;99.90;;;;;;5024991;28;20154;-71
2023/03/06 02:39:26;;;;;;;10.48;5.53;;;2.90;99.90;;;;;;5018818;28;20587;-71
2023/03/06 02:41:51;;;;;;;8.77;5.43;;;2.90;99.90;;;;;;5026075;28;20061;-71
2023/03/06 02:44:17;;;;;;;9.88;5.53;;;3.00;99.90;;;;;;5028308;28;20056;-71
2023/03/06 02:46:43;;;;;;;10.00;4.93;;;3.00;99.90;;;;;;5028595;28;20123;-71
2023/03/06 02:49:08;;;;;;;10.48;5.45;;;3.00;99.90;;;;;;5023453;28;20056;-71
2023/03/06 02:51:35;;;;;;;9.10;5.20;;;3.00;99.90;;;;;;5025464;28;20050;-71
2023/03/06 02:54:00;;;;;;;9.30;5.82;;;3.00;99.90;;;;;;5027382;28;20367;-71
2023/03/06 02:56:26;;;;;;;8.30;5.95;;;3.00;99.90;;;;;;5026538;28;20446;-71
2023/03/06 02:58:52;;;;;;;12.30;5.97;;;3.00;99.90;;;;;;5020592;28;20472;-70
2023/03/06 03:01:17;;;;;;;9.38;6.13;;;3.00;99.90;;;;;;5030009;28;20051;-70
2023/03/06 03:03:43;;;;;;;8.38;6.15;;;3.00;99.90;;;;;;5027127;28;20045;-71
2023/03/06 03:06:09;;;;;;;8.15;6.00;;;3.00;99.90;;;;;;5025103;28;20042;-70
2023/03/06 03:08:35;;;;;;;12.18;6.80;;;3.00;99.90;;;;;;5027740;28;20175;-70
2023/03/06 03:11:02;;;;;;;7.80;6.40;;;3.00;99.90;;;;;;5020899;28;20041;-70
2023/03/06 03:13:28;;;;;;;9.07;6.88;;;2.90;99.90;;;;;;5029115;28;20059;-71
2023/03/06 03:16:05;;;;;;;14.07;7.05;;;3.00;99.90;;;;;;5021872;28;20522;-71
2023/03/06 03:18:32;;;;;;;12.15;6.63;;;3.00;99.90;;;;;;5026394;28;20056;-71
2023/03/06 03:20:57;;;;;;;12.60;7.43;;;3.00;99.90;;;;;;5030435;28;20037;-70
2023/03/06 03:23:24;;;;;;;11.93;7.90;;;3.00;99.90;;;;;;5027392;28;20045;-69
2023/03/06 03:25:50;;;;;;;12.18;8.23;;;3.00;99.90;;;;;;5030765;28;20373;-70
2023/03/06 03:28:16;;;;;;;13.27;8.35;;;3.00;99.90;;;;;;5028340;28;20056;-69
2023/03/06 03:30:42;;;;;;;11.87;8.17;;;3.00;99.90;;;;;;5025143;28;20124;-70
2023/03/06 03:33:09;;;;;;;15.05;9.18;;;3.00;99.90;;;;;;5016027;28;20588;-70
2023/03/06 03:35:34;;;;;;;14.57;9.00;;;2.90;99.90;;;;;;5024135;28;20033;-70
2023/03/06 03:38:01;;;;;;;14.07;8.93;;;2.90;99.90;;;;;;5028203;28;20138;-70
2023/03/06 03:40:27;;;;;;;14.95;9.45;;;2.90;99.90;;;;;;5028180;28;20447;-70
2023/03/06 03:42:53;;;;;;;13.50;9.35;;;2.90;99.90;;;;;;5028941;28;20037;-70
2023/03/06 03:45:18;;;;;;;15.70;9.82;;;2.90;99.90;;;;;;5028488;28;20045;-70
2023/03/06 03:47:44;;;;;;;22.20;11.30;;;2.90;99.90;;;;;;5018758;28;20064;-70
2023/03/06 03:50:10;;;;;;;16.33;10.75;;;2.90;99.90;;;;;;5030186;28;20061;-70
2023/03/06 03:52:36;;;;;;;15.65;11.38;;;2.90;99.90;;;;;;5027004;28;20060;-70
2023/03/06 03:55:02;;;;;;;16.92;12.38;;;2.80;99.90;;;;;;5027536;28;20041;-70
2023/03/06 03:57:28;;;;;;;18.20;11.80;;;2.80;99.90;;;;;;5029325;28;20060;-70
2023/03/06 03:59:54;;;;;;;19.10;13.27;;;2.90;99.90;;;;;;5031147;28;20416;-70
2023/03/06 04:02:22;;;;;;;18.90;12.65;;;2.90;99.90;;;;;;5025797;28;20405;-70
2023/03/06 04:04:48;;;;;;;17.83;12.90;;;2.90;99.90;;;;;;5027386;28;20045;-70
2023/03/06 04:07:14;;;;;;;17.85;13.32;;;2.80;99.90;;;;;;5026750;28;20037;-70
2023/03/06 04:09:40;;;;;;;17.58;13.32;;;2.90;99.90;;;;;;5027096;28;20048;-70
2023/03/06 04:12:06;;;;;;;20.02;13.73;;;2.90;99.90;;;;;;5026562;28;20061;-70
2023/03/06 04:14:32;;;;;;;18.75;13.80;;;2.80;99.90;;;;;;5026900;28;20034;-70
2023/03/06 04:16:57;;;;;;;19.98;14.68;;;2.80;99.90;;;;;;5026365;28;20507;-70
2023/03/06 04:19:23;;;;;;;20.15;14.85;;;2.80;99.90;;;;;;5024965;28;20124;-70
2023/03/06 04:21:49;;;;;;;20.83;14.50;;;2.80;99.90;;;;;;5030782;28;20045;-70
2023/03/06 04:24:15;;;;;;;17.88;14.65;;;2.80;99.90;;;;;;5025538;28;20043;-70
2023/03/06 04:26:40;;;;;;;22.48;15.27;;;2.80;99.90;;;;;;5026362;28;20041;-70
2023/03/06 04:29:06;;;;;;;15.73;11.48;;;2.80;99.90;;;;;;5030968;28;20563;-70
2023/03/06 04:31:32;;;;;;;11.23;9.30;;;2.80;99.90;;;;;;5025017;28;20140;-70
2023/03/06 04:33:58;;;;;;;9.02;7.07;;;2.80;99.90;;;;;;5024689;28;20131;-70
2023/03/06 04:36:32;;;;;;;6.97;5.53;;;2.70;99.90;;;;;;5022776;28;20033;-70
2023/03/06 04:38:58;;;;;;;7.07;5.00;;;2.60;99.90;;;;;;5027398;28;20123;-70
2023/03/06 04:41:24;;;;;;;5.32;4.55;;;2.60;99.90;;;;;;5025349;28;20038;-70
2023/03/06 04:43:50;;;;;;;8.23;5.28;;;2.50;99.90;;;;;;5025048;28;20048;-69
2023/03/06 04:46:16;;;;;;;7.18;5.15;;;2.40;99.90;;;;;;5025528;28;20057;-70
2023/03/06 04:48:42;;;;;;;6.30;4.45;;;2.40;99.90;;;;;;5024136;28;20434;-70
2023/03/06 04:51:09;;;;;;;5.60;4.43;;;2.30;99.90;;;;;;5020307;28;20123;-70
2023/03/06 04:53:35;;;;;;;6.18;4.25;;;2.30;99.90;;;;;;5018667;28;20045;-70
2023/03/06 04:56:00;;;;;;;4.72;3.65;;;2.30;99.90;;;;;;5026945;28;20052;-70
2023/03/06 04:58:26;;;;;;;4.82;3.60;;;2.20;99.90;;;;;;5022315;28;20096;-70
2023/03/06 05:00:51;;;;;;;3.72;3.28;;;2.20;99.90;;;;;;5016531;28;20056;-70
2023/03/06 05:03:17;;;;;;;3.25;2.60;;;2.30;99.90;;;;;;5021122;28;20050;-70
2023/03/06 05:05:43;;;;;;;3.25;2.90;;;2.30;99.90;;;;;;5022440;28;20052;-70
2023/03/06 05:08:14;;;;;;;3.50;2.80;;;2.20;99.90;;;;;;5023437;28;20541;-70
2023/03/06 05:10:40;;;;;;;2.72;2.50;;;2.30;99.90;;;;;;5027062;28;20492;-70
2023/03/06 05:13:06;;;;;;;3.10;2.47;;;2.20;99.90;;;;;;5025708;28;20037;-69
2023/03/06 05:15:32;;;;;;;3.97;3.20;;;2.20;99.90;;;;;;5029788;28;20541;-70
2023/03/06 05:17:58;;;;;;;4.28;3.00;;;2.20;99.90;;;;;;5021655;28;20467;-69
2023/03/06 05:20:24;;;;;;;4.22;2.80;;;2.10;99.90;;;;;;5026001;28;20125;-70
2023/03/06 05:22:49;;;;;;;2.88;2.60;;;2.10;99.90;;;;;;5025620;28;20450;-70
2023/03/06 05:25:15;;;;;;;2.50;2.30;;;2.10;99.90;;;;;;5023977;28;20129;-70
2023/03/06 05:27:42;;;;;;;3.45;2.60;;;2.00;99.90;;;;;;5023730;28;20049;-71
2023/03/06 05:30:10;;;;;;;2.17;1.98;;;2.00;99.90;;;;;;5018900;28;20046;-70
2023/03/06 05:32:36;;;;;;;2.78;2.30;;;2.00;99.90;;;;;;5023888;28;20496;-70
2023/03/06 05:35:02;;;;;;;2.28;2.08;;;2.00;99.90;;;;;;5024027;28;20092;-70
2023/03/06 05:37:28;;;;;;;2.47;2.15;;;2.00;99.90;;;;;;5030084;28;20060;-70
2023/03/06 05:39:54;;;;;;;2.05;1.85;;;2.00;99.90;;;;;;5026474;28;20065;-70
2023/03/06 05:42:19;;;;;;;3.15;2.28;;;1.90;99.90;;;;;;5025308;28;20081;-70
2023/03/06 05:44:45;;;;;;;2.53;2.10;;;1.90;99.90;;;;;;5019633;28;20954;-70
2023/03/06 05:47:11;;;;;;;2.60;2.20;;;1.90;99.90;;;;;;5019420;28;20049;-70
2023/03/06 05:49:37;;;;;;;3.22;2.13;;;1.90;99.90;;;;;;5020207;28;20049;-70
2023/03/06 05:52:04;;;;;;;3.13;2.00;;;1.90;99.90;;;;;;5023286;28;20441;-70
2023/03/06 05:54:31;;;;;;;3.22;2.30;;;1.90;99.90;;;;;;5014106;28;20069;-70
2023/03/06 05:56:57;;;;;;;2.17;1.85;;;1.90;99.90;;;;;;5028133;28;20514;-70
2023/03/06 05:59:27;;;;;;;2.22;1.88;;;2.00;99.90;;;;;;5023519;28;20132;-70
2023/03/06 06:01:56;;;;;;;1.80;1.67;;;2.00;99.90;;;;;;5024263;28;20053;-71
2023/03/06 06:04:25;;;;;;;2.38;1.70;;;2.00;99.90;;;;;;5029311;28;20077;-70
2023/03/06 06:06:55;;;;;;;2.42;1.60;;;2.00;99.90;;;;;;5021520;28;20048;-71
2023/03/06 06:09:21;;;;;;;2.60;1.60;;;2.00;99.90;;;;;;5021452;28;20515;-70
2023/03/06 06:11:50;;;;;;;2.30;1.70;;;2.10;99.90;;;;;;5014203;28;20042;-70
2023/03/06 06:14:16;;;;;;;2.22;2.03;;;2.10;99.90;;;;;;5022372;28;20067;-70
2023/03/06 06:16:41;;;;;;;2.88;2.10;;;2.10;99.90;;;;;;5024157;28;20038;-71
2023/03/06 06:19:07;;;;;;;2.45;1.92;;;2.10;99.90;;;;;;5017064;28;20116;-70
2023/03/06 06:21:33;;;;;;;2.03;1.83;;;2.10;99.90;;;;;;5024531;28;20040;-70
2023/03/06 06:23:59;;;;;;;2.90;2.00;;;2.10;99.90;;;;;;5027221;28;20045;-70
2023/03/06 06:26:24;;;;;;;2.55;1.83;;;2.10;99.90;;;;;;5022214;28;20091;-70
2023/03/06 06:28:50;;;;;;;2.00;1.80;;;2.10;99.90;;;;;;5020246;28;20110;-71
2023/03/06 06:31:15;;;;;;;2.40;1.98;;;2.10;99.90;;;;;;5022366;28;20377;-72
2023/03/06 06:33:41;;;;;;;2.20;2.00;;;2.10;99.90;;;;;;5024882;28;20049;-71
2023/03/06 06:36:20;;;;;;;2.30;2.00;;;2.10;99.90;;;;;;5018755;28;20048;-71
2023/03/06 06:38:46;;;;;;;2.90;1.90;;;2.10;99.90;;;;;;5027594;28;20033;-71
2023/03/06 06:41:12;;;;;;;2.80;2.03;;;2.00;99.90;;;;;;5027940;28;20136;-71
2023/03/06 06:43:37;;;;;;;2.97;1.85;;;1.90;99.90;;;;;;5026398;28;20050;-71
2023/03/06 06:46:03;;;;;;;5.00;2.30;;;2.00;99.90;;;;;;5027153;28;20042;-71
2023/03/06 06:48:29;;;;;;;2.67;2.05;;;2.00;99.90;;;;;;5028137;28;20049;-71
2023/03/06 06:50:56;;;;;;;2.65;2.15;;;2.00;99.90;;;;;;5026799;28;20129;-71
2023/03/06 06:53:22;;;;;;;2.55;2.25;;;1.90;99.90;;;;;;5024947;28;20048;-70
2023/03/06 06:55:48;;;;;;;2.75;2.25;;;2.00;99.90;;;;;;5022026;28;20045;-69
2023/03/06 06:58:14;;;;;;;3.15;2.45;;;2.00;99.90;;;;;;5019654;28;20062;-70
2023/03/06 07:00:39;;;;;;;4.22;2.65;;;2.00;99.90;;;;;;5023027;28;20056;-70
2023/03/06 07:03:05;;;;;;;4.00;2.45;;;2.00;99.90;;;;;;5012579;28;20049;-70
2023/03/06 07:05:31;;;;;;;3.20;2.65;;;2.00;99.90;;;;;;5027396;28;20417;-70
2023/03/06 07:07:57;;;;;;;4.00;2.95;;;2.00;99.90;;;;;;5022349;28;20462;-70
2023/03/06 07:10:22;;;;;;;4.85;3.30;;;2.00;99.90;;;;;;5016006;28;20046;-70
2023/03/06 07:12:48;;;;;;;3.95;2.90;;;2.10;99.90;;;;;;5022892;28;20045;-70
2023/03/06 07:15:16;;;;;;;4.85;3.55;;;2.10;99.90;;;;;;5021949;28;20132;-70
2023/03/06 07:17:42;;;;;;;5.25;3.58;;;2.20;99.90;;;;;;5020340;28;20049;-70
2023/03/06 07:20:09;;;;;;;4.82;3.30;;;2.20;99.90;;;;;;5025915;28;20045;-70
2023/03/06 07:22:36;;;;;;;7.18;3.75;;;2.20;99.90;;;;;;5023250;28;20056;-70
2023/03/06 07:25:03;;;;;;;4.50;3.30;;;2.30;99.90;;;;;;5019797;28;20061;-69
2023/03/06 07:27:29;;;;;;;;;;;2.40;99.90;;;;;;5021063;28;20597;-70
2023/03/06 07:29:55;;;;;;;4.88;2.88;;;2.40;99.90;;;;;;5037356;28;19929;-70
2023/03/06 07:32:20;;;;;;;4.32;2.47;;;2.40;99.90;;;;;;5019914;28;20381;-70
2023/03/06 07:34:46;;;;;;;3.42;2.33;;;2.50;99.90;;;;;;5021033;28;20425;-70
2023/03/06 07:37:12;;;;;;;4.05;2.45;;;2.50;99.90;;;;;;5017710;28;20049;-69
2023/03/06 07:39:38;;;;;;;4.93;2.10;;;2.50;99.90;;;;;;5021001;28;20619;-70
2023/03/06 07:42:06;;;;;;;4.63;2.70;;;2.50;99.90;;;;;;5020985;28;20048;-70
2023/03/06 07:44:35;;;;;;;3.67;2.50;;;2.50;99.90;;;;;;5024071;28;20510;-70
2023/03/06 07:47:01;;;;;;;5.95;2.70;;;2.40;99.90;;;;;;5024253;28;20624;-70
2023/03/06 07:49:26;;;;;;;3.88;2.90;;;2.50;99.90;;;;;;5025377;28;20175;-70
2023/03/06 07:51:52;;;;;;;4.80;3.03;;;2.50;99.90;;;;;;5023155;28;20049;-70
2023/03/06 07:54:17;;;;;;;4.80;3.70;;;2.60;99.90;;;;;;5024643;28;20045;-70
2023/03/06 07:56:43;;;;;;;6.57;4.47;;;2.60;99.90;;;;;;5028084;28;21915;-70
2023/03/06 07:59:10;;;;;;;6.35;3.30;;;2.60;99.90;;;;;;5025058;28;20057;-70
2023/03/06 08:01:38;;;;;;;5.47;2.90;;;2.60;99.90;;;;;;5027678;28;20053;-72
2023/03/06 08:04:04;;;;;;;5.28;2.67;;;2.60;99.90;;;;;;5024699;28;20045;-72
2023/03/06 08:06:31;;;;;;;3.90;2.53;;;2.70;99.90;;;;;;5025252;28;20052;-71
2023/03/06 08:08:58;;;;;;;4.28;2.30;;;2.70;99.90;;;;;;5022297;28;20120;-70
2023/03/06 08:11:26;;;;;;;5.45;2.67;;;2.80;99.90;;;;;;5023243;28;20035;-70
2023/03/06 08:13:52;;;;;;;3.60;2.50;;;2.80;99.90;;;;;;5023803;28;20045;-71
2023/03/06 08:16:25;;;;;;;4.88;2.40;;;2.90;99.90;;;;;;5024307;28;20046;-70
2023/03/06 08:18:51;;;;;;;4.60;2.92;;;2.90;99.90;;;;;;5033456;28;20484;-71
2023/03/06 08:21:19;;;;;;;4.85;2.67;;;3.00;99.90;;;;;;5032513;28;20048;-71
2023/03/06 08:23:45;;;;;;;4.05;2.38;;;3.00;99.90;;;;;;5032047;28;20037;-70
2023/03/06 08:26:14;;;;;;;4.93;2.20;;;3.10;99.90;;;;;;5033170;28;20053;-71
2023/03/06 08:28:43;;;;;;;3.55;2.10;;;3.10;99.90;;;;;;5030418;28;20480;-71
2023/03/06 08:31:19;;;;;;;5.10;2.20;;;3.10;99.90;;;;;;5025543;28;20138;-71
2023/03/06 08:33:45;;;;;;;5.10;1.92;;;3.10;99.90;;;;;;5028513;28;20402;-70
2023/03/06 08:36:11;;;;;;;6.25;2.08;;;3.10;99.90;;;;;;5029580;28;20399;-69
2023/03/06 08:38:37;;;;;;;5.68;2.15;;;3.10;99.90;;;;;;5028182;28;20144;-69
2023/03/06 08:41:02;;;;;;;3.47;2.10;;;3.10;99.90;;;;;;5030529;28;20060;-69
2023/03/06 08:43:28;;;;;;;4.97;2.10;;;3.20;99.90;;;;;;5044365;28;20040;-70
2023/03/06 08:45:55;;;;;;;4.18;2.13;;;3.20;99.90;;;;;;5027202;28;20064;-72
2023/03/06 08:48:21;;;;;;;4.20;2.10;;;3.20;99.90;;;;;;5020765;28;20085;-70
2023/03/06 08:50:47;;;;;;;5.43;2.17;;;3.30;99.90;;;;;;5031889;28;20498;-71
2023/03/06 08:53:12;;;;;;;6.47;2.55;;;3.40;99.90;;;;;;5031168;28;20046;-70
2023/03/06 08:55:38;;;;;;;4.63;2.50;;;3.50;99.90;;;;;;5031122;28;20400;-71
2023/03/06 08:58:04;;;;;;;5.18;2.10;;;3.50;99.90;;;;;;5029817;28;20048;-71
2023/03/06 09:00:34;;;;;;;4.88;2.00;;;3.60;99.90;;;;;;5030882;28;20100;-71
2023/03/06 09:02:59;;;;;;;4.55;2.10;;;3.70;99.90;;;;;;5026806;28;20041;-71
2023/03/06 09:05:25;;;;;;;5.80;2.17;;;3.70;99.90;;;;;;5017946;28;20057;-72
2023/03/06 09:07:52;;;;;;;5.25;2.38;;;3.80;99.90;;;;;;5030669;28;20115;-71
2023/03/06 09:10:21;;;;;;;4.65;2.47;;;3.80;99.90;;;;;;5028517;28;20053;-70
2023/03/06 09:12:47;;;;;;;5.85;2.63;;;3.90;99.90;;;;;;5028365;28;20041;-71
2023/03/06 09:15:14;;;;;;;4.00;1.98;;;3.90;99.90;;;;;;5028006;28;20052;-70
2023/03/06 09:17:40;;;;;;;3.30;1.83;;;3.90;99.90;;;;;;5030875;28;20100;-73
2023/03/06 09:20:08;;;;;;;4.22;1.95;;;4.00;99.90;;;;;;5030527;28;20045;-72
2023/03/06 09:22:35;;;;;;;3.03;1.88;;;4.00;99.90;;;;;;5026276;28;20045;-71
2023/03/06 09:25:01;;;;;;;3.65;1.75;;;4.20;99.90;;;;;;5030456;28;20053;-71
2023/03/06 09:27:27;;;;;;;3.00;1.48;;;4.20;99.90;;;;;;5030172;28;20050;-70
2023/03/06 09:29:53;;;;;;;5.90;2.00;;;4.20;99.90;;;;;;5024346;28;20107;-70
2023/03/06 09:32:19;;;;;;;4.97;1.80;;;4.30;99.90;;;;;;5024527;28;20041;-71
2023/03/06 09:34:45;;;;;;;5.20;1.63;;;4.30;99.90;;;;;;5030645;28;20095;-71
2023/03/06 09:37:11;;;;;;;5.40;1.92;;;4.40;99.90;;;;;;5031352;28;20049;-70
2023/03/06 09:39:37;;;;;;;4.20;1.55;;;4.50;99.90;;;;;;5029791;28;20103;-70
2023/03/06 09:42:07;;;;;;;5.80;1.67;;;4.60;99.90;;;;;;5021378;28;20111;-71
2023/03/06 09:44:36;;;;;;;4.18;1.70;;;4.60;99.90;;;;;;5029492;28;20042;-71
2023/03/06 09:47:20;;;;;;;5.15;1.70;;;4.70;99.90;;;;;;5024357;28;20056;-71
2023/03/06 09:50:10;;;;;;;5.35;1.70;;;4.70;99.90;;;;;;5031138;28;20045;-71
2023/03/06 09:53:07;;;;;;;3.42;1.10;;;4.80;99.90;;;;;;5025487;28;20035;-71
2023/03/06 09:55:37;;;;;;;3.70;1.20;;;4.80;99.90;;;;;;5025605;28;20507;-70
2023/03/06 09:58:05;;;;;;;5.35;1.73;;;4.90;99.90;;;;;;5027343;28;20060;-75
2023/03/06 10:00:36;;;;;;;3.83;1.33;;;5.00;99.90;;;;;;5027234;28;20451;-74
2023/03/06 10:03:10;;;;;;;3.15;1.42;;;5.00;99.90;;;;;;5021518;28;20053;-71
2023/03/06 10:05:45;;;;;;;3.83;1.50;;;5.00;99.90;;;;;;5030944;28;20041;-70
2023/03/06 10:08:21;;;;;;;3.50;1.23;;;5.20;99.90;;;;;;5019154;28;20091;-70
2023/03/06 10:11:01;;;;;;;4.95;1.42;;;5.20;99.90;;;;;;5016782;28;20458;-71
2023/03/06 10:13:26;;;;;;;6.55;1.40;;;5.30;99.90;;;;;;5024264;28;20397;-72
2023/03/06 10:16:02;;;;;;;3.28;1.25;;;5.30;99.90;;;;;;5029052;28;20045;-72
2023/03/06 10:18:27;;;;;;;3.00;1.20;;;5.30;99.90;;;;;;5023299;28;20053;-72
2023/03/06 10:21:04;;;;;;;4.95;1.58;;;5.30;99.90;;;;;;5028172;28;20037;-72
2023/03/06 10:23:48;;;;;;;4.93;1.30;;;5.30;99.90;;;;;;5022584;28;20068;-72
2023/03/06 10:26:28;;;;;;;3.40;0.68;;;5.20;99.90;;;;;;5020952;28;20048;-70
2023/03/06 10:29:13;;;;;;;4.38;0.90;;;5.20;99.90;;;;;;5027814;28;20388;-71
2023/03/06 10:31:47;;;;;;;3.83;0.90;;;5.20;99.90;;;;;;5030601;28;20120;-70
2023/03/06 10:34:27;;;;;;;4.35;0.90;;;5.20;99.90;;;;;;5018610;28;20046;-70
2023/03/06 10:36:53;;;;;;;5.45;1.00;;;5.20;99.90;;;;;;5017585;28;20053;-70
2023/03/06 10:39:21;;;;;;;4.15;1.00;;;5.20;99.90;;;;;;5026202;28;20044;-69
2023/03/06 10:41:48;;;;;;;4.05;1.10;;;5.20;99.90;;;;;;5027587;28;20061;-69
2023/03/06 10:44:14;;;;;;;6.32;1.10;;;5.30;99.90;;;;;;5031032;28;20042;-68
2023/03/06 10:46:42;;;;;;;5.75;1.20;;;5.40;99.90;;;;;;5027841;28;20453;-71
2023/03/06 10:49:26;;;;;;;5.30;1.40;;;5.40;99.90;;;;;;5027803;28;20058;-71
2023/03/06 10:52:14;;;;;;;4.20;0.90;;;5.70;99.90;;;;;;5013694;28;20096;-70
2023/03/06 10:54:43;;;;;;;2.83;0.70;;;5.70;99.90;;;;;;5008402;28;20058;-69
2023/03/06 10:57:20;;;;;;;6.82;0.90;;;5.90;99.90;;;;;;5021243;28;20045;-68
2023/03/06 10:59:54;;;;;;;2.90;0.90;;;6.00;99.90;;;;;;5023035;28;20045;-69
2023/03/06 11:02:23;;;;;;;3.78;0.63;;;6.10;99.90;;;;;;5027018;28;20053;-68
2023/03/06 11:04:51;;;;;;;3.53;0.70;;;6.00;99.90;;;;;;5014366;28;20505;-70
2023/03/06 11:07:22;;;;;;;5.18;0.98;;;6.10;99.90;;;;;;5018290;28;20061;-70
2023/03/06 11:09:57;;;;;;;2.70;0.75;;;6.10;99.90;;;;;;5012938;28;20050;-70
2023/03/06 11:12:29;;;;;;;1.77;0.70;;;6.10;99.90;;;;;;5026588;28;20049;-70
2023/03/06 11:15:13;;;;;;;3.97;0.80;;;6.20;99.90;;;;;;5025959;28;20119;-72
2023/03/06 11:17:47;;;;;;;4.13;0.95;;;6.40;99.90;;;;;;5024136;28;20426;-71
2023/03/06 11:20:13;;;;;;;2.45;0.85;;;6.40;99.90;;;;;;5034518;28;20072;-71
2023/03/06 11:22:39;;;;;;;2.38;0.80;;;6.40;99.90;;;;;;5029540;28;20037;-70
2023/03/06 11:25:12;;;;;;;3.90;0.65;;;6.40;99.90;;;;;;5033198;28;20050;-71
2023/03/06 11:27:42;;;;;;;2.83;0.70;;;6.50;99.90;;;;;;5026464;28;20188;-69
2023/03/06 11:30:29;;;;;;;2.35;0.80;;;6.50;99.90;;;;;;5029619;28;20053;-70
2023/03/06 11:32:59;;;;;;;4.47;0.90;;;6.60;99.90;;;;;;5028147;28;20033;-70
2023/03/06 11:35:33;;;;;;;2.03;0.80;;;6.60;99.90;;;;;;5026902;28;20053;-69
2023/03/06 11:38:23;;;;;;;3.22;0.70;;;6.70;99.90;;;;;;5026249;28;20566;-71
2023/03/06 11:40:53;;;;;;;4.65;1.00;;;6.90;99.90;;;;;;5026763;28;20092;-72
2023/03/06 11:43:28;;;;;;;3.95;1.10;;;7.00;99.90;;;;;;5024667;28;20084;-72
2023/03/06 11:46:20;;;;;;;4.38;1.00;;;7.10;99.90;;;;;;5029977;28;20033;-72
2023/03/06 11:48:55;;;;;;;1.73;0.80;;;7.10;99.90;;;;;;5033604;28;20103;-73
2023/03/06 11:51:31;;;;;;;3.67;0.90;;;7.10;99.90;;;;;;5017214;28;20083;-72
2023/03/06 11:53:59;;;;;;;4.18;0.90;;;7.00;99.90;;;;;;5027250;28;20069;-72
2023/03/06 11:56:35;;;;;;;2.45;0.75;;;6.90;99.90;;;;;;5032541;28;20053;-71
2023/03/06 11:59:25;;;;;;;3.33;0.90;;;7.00;99.90;;;;;;5029985;28;20103;-72
2023/03/06 12:02:24;;;;;;;4.63;1.05;;;7.00;99.90;;;;;;5028409;28;20076;-72
2023/03/06 12:05:20;;;;;;;2.63;0.73;;;7.00;99.90;;;;;;5026759;28;20124;-71
2023/03/06 12:08:06;;;;;;;3.22;0.80;;;7.00;99.90;;;;;;5022832;28;20048;-69
2023/03/06 12:10:44;;;;;;;4.95;0.90;;;7.00;99.90;;;;;;5021667;28;20499;-72
2023/03/06 12:13:15;;;;;;;1.50;0.80;;;7.00;99.90;;;;;;5027151;28;20456;-71
2023/03/06 12:16:26;;;;;;;2.65;0.80;;;7.00;99.90;;;;;;5021000;28;20042;-72
2023/03/06 12:18:58;;;;;;;5.22;1.00;;;7.00;98.20;;;;;;4999244;28;20135;-72
2023/03/06 12:21:57;;;;;;;3.83;0.95;;;6.90;99.40;;;;;;5026656;28;20059;-72
2023/03/06 12:24:52;;;;;;;2.67;0.80;;;6.80;96.70;;;;;;5024907;28;20060;-71
2023/03/06 12:27:26;;;;;;;2.63;0.70;;;6.90;96.40;;;;;;5021900;28;20041;-72
2023/03/06 12:29:52;;;;;;;4.30;0.60;;;6.90;97.40;;;;;;5027642;28;20115;-75
2023/03/06 12:32:39;;;;;;;1.88;0.70;;;7.00;96.90;;;;;;5023910;28;20045;-71
2023/03/06 12:35:28;;;;;;;3.67;1.20;;;7.10;96.60;;;;;;5027641;28;20056;-71
2023/03/06 12:38:12;;;;;;;2.78;0.70;;;7.10;96.10;;;;;;5019906;28;20081;-73
2023/03/06 12:40:56;;;;;;;1.83;0.80;;;7.10;95.80;;;;;;5024731;28;20087;-71
2023/03/06 12:43:40;;;;;;;2.88;0.60;;;7.10;96.60;;;;;;5026758;28;20061;-71
2023/03/06 12:46:20;;;;;;;3.70;0.85;;;7.10;96.70;;;;;;5026161;28;20099;-71
2023/03/06 12:49:09;;;;;;;4.25;0.95;;;7.20;97.70;;;;;;5026796;28;20057;-69
2023/03/06 12:51:38;;;;;;;1.95;0.68;;;7.30;97.00;;;;;;5019604;28;20045;-70
2023/03/06 12:54:05;;;;;;;2.97;0.90;;;7.30;99.20;;;;;;5023332;28;20060;-70
2023/03/06 12:56:32;;;;;;;4.00;1.05;;;7.20;99.90;;;;;;5028565;28;20077;-70
2023/03/06 12:59:01;;;;;;;2.95;0.85;;;7.30;98.30;;;;;;5029435;28;20057;-71
2023/03/06 13:01:45;;;;;;;2.42;0.85;;;7.30;97.50;;;;;;5026336;28;20041;-70
2023/03/06 13:04:33;;;;;;;2.15;0.90;;;7.30;97.20;;;;;;5012002;28;20224;-70
2023/03/06 13:07:21;;;;;;;6.18;1.23;;;7.40;98.90;;;;;;5027754;28;20073;-70
2023/03/06 13:10:28;;;;;;;3.35;0.80;;;7.50;99.90;;;;;;5024189;28;20050;-70